createdAt,value
2022-11-23T00:02:22.158Z,7.17
2022-11-23T00:04:51.912Z,6.30
2022-11-23T00:07:21.661Z,6.63
2022-11-23T00:09:51.432Z,6.40
2022-11-23T00:12:21.249Z,6.47
2022-11-23T00:14:50.990Z,6.50
2022-11-23T00:17:20.739Z,6.20
2022-11-23T00:19:50.475Z,6.43
2022-11-23T00:22:20.208Z,6.07
2022-11-23T00:24:50.051Z,6.03
2022-11-23T00:27:19.827Z,6.00
2022-11-23T00:29:49.578Z,5.27
2022-11-23T00:32:20.069Z,5.72
2022-11-23T00:34:49.862Z,6.30
2022-11-23T00:37:19.964Z,6.60
2022-11-23T00:39:49.693Z,6.97
2022-11-23T00:42:19.807Z,7.27
2022-11-23T00:44:49.837Z,6.42
2022-11-23T00:47:19.562Z,6.07
2022-11-23T00:49:49.308Z,5.93
2022-11-23T00:52:20.214Z,5.70
2022-11-23T00:54:51.583Z,5.93
2022-11-23T00:57:21.591Z,5.70
2022-11-23T00:59:51.465Z,6.03
2022-11-23T01:02:21.191Z,5.25
2022-11-23T01:04:50.913Z,5.73
2022-11-23T01:07:20.784Z,5.43
2022-11-23T01:09:50.342Z,5.05
2022-11-23T01:12:20.148Z,4.90
2022-11-23T01:14:49.868Z,4.70
2022-11-23T01:17:19.619Z,5.17
2022-11-23T01:19:49.326Z,5.47
2022-11-23T01:22:20.166Z,5.10
2022-11-23T01:24:51.931Z,4.67
2022-11-23T01:27:21.798Z,4.60
2022-11-23T01:29:52.883Z,5.10
2022-11-23T01:32:22.709Z,4.03
2022-11-23T01:34:52.457Z,4.23
2022-11-23T01:37:22.180Z,3.80
2022-11-23T01:39:53.473Z,4.10
2022-11-23T01:42:23.220Z,4.22
2022-11-23T01:44:53.696Z,4.00
2022-11-23T01:47:23.426Z,3.67
2022-11-23T01:49:53.933Z,3.83
2022-11-23T01:52:26.924Z,3.97
2022-11-23T01:55:03.884Z,3.23
2022-11-23T01:57:34.020Z,3.53
2022-11-23T02:00:06.053Z,3.62
2022-11-23T02:02:39.655Z,4.03
2022-11-23T02:05:09.940Z,3.87
2022-11-23T02:07:41.564Z,3.40
2022-11-23T02:10:11.720Z,3.37
2022-11-23T02:12:41.589Z,3.37
2022-11-23T02:15:13.083Z,3.30
2022-11-23T02:17:44.192Z,2.97
2022-11-23T02:20:19.416Z,2.88
2022-11-23T02:23:02.566Z,3.10
2022-11-23T02:25:50.233Z,3.20
2022-11-23T02:28:22.696Z,3.10
2022-11-23T02:30:55.289Z,3.10
2022-11-23T02:33:25.474Z,3.30
2022-11-23T02:35:57.755Z,2.80
2022-11-23T02:38:30.538Z,2.67
2022-11-23T02:41:01.784Z,2.60
2022-11-23T02:43:31.661Z,3.50
2022-11-23T02:46:04.447Z,2.37
2022-11-23T02:48:35.452Z,2.60
2022-11-23T02:51:06.264Z,2.22
2022-11-23T02:53:36.033Z,2.47
2022-11-23T02:56:05.891Z,2.60
2022-11-23T02:58:35.620Z,2.60
2022-11-23T03:01:06.925Z,2.05
2022-11-23T03:03:36.692Z,2.23
2022-11-23T03:06:07.027Z,2.35
2022-11-23T03:08:38.061Z,2.45
2022-11-23T03:11:07.936Z,2.00
2022-11-23T03:13:37.656Z,2.20
2022-11-23T03:16:09.907Z,2.83
2022-11-23T03:18:40.484Z,2.53
2022-11-23T03:21:11.465Z,2.57
2022-11-23T03:23:41.207Z,2.93
2022-11-23T03:26:13.424Z,3.40
2022-11-23T03:28:48.065Z,2.40
2022-11-23T03:31:18.263Z,2.80
2022-11-23T03:33:48.157Z,2.17
2022-11-23T03:36:17.850Z,2.23
2022-11-23T03:38:49.325Z,2.57
2022-11-23T03:41:29.473Z,2.37
2022-11-23T03:44:00.991Z,2.40
2022-11-23T03:46:30.915Z,2.27
2022-11-23T03:49:00.964Z,2.67
2022-11-23T03:51:30.794Z,2.83
2022-11-23T03:54:00.609Z,2.80
2022-11-23T03:56:30.217Z,2.62
2022-11-23T03:59:00.030Z,2.57
2022-11-23T04:01:30.522Z,2.80
2022-11-23T04:04:01.984Z,2.80
2022-11-23T04:06:42.389Z,2.60
2022-11-23T04:09:14.060Z,2.35
2022-11-23T04:11:57.283Z,2.47
2022-11-23T04:14:27.202Z,2.15
2022-11-23T04:16:57.046Z,2.23
2022-11-23T04:19:26.543Z,2.65
2022-11-23T04:21:57.135Z,2.33
2022-11-23T04:24:26.955Z,2.43
2022-11-23T04:26:57.949Z,2.57
2022-11-23T04:29:27.809Z,2.80
2022-11-23T04:31:58.511Z,2.80
2022-11-23T04:34:28.493Z,2.35
2022-11-23T04:36:58.222Z,1.87
2022-11-23T04:39:30.331Z,2.30
2022-11-23T04:42:13.536Z,2.95
2022-11-23T04:44:44.978Z,2.53
2022-11-23T04:47:14.893Z,2.30
2022-11-23T04:49:46.338Z,2.43
2022-11-23T04:52:16.807Z,2.02
2022-11-23T04:54:48.402Z,2.67
2022-11-23T04:57:18.381Z,2.53
2022-11-23T04:59:48.447Z,2.57
2022-11-23T05:02:18.004Z,2.17
2022-11-23T05:04:52.112Z,2.30
2022-11-23T05:07:22.571Z,2.00
2022-11-23T05:09:54.047Z,2.47
2022-11-23T05:12:24.302Z,2.60
2022-11-23T05:14:54.214Z,2.40
2022-11-23T05:17:26.561Z,2.37
2022-11-23T05:19:56.762Z,2.33
2022-11-23T05:22:26.571Z,1.92
2022-11-23T05:24:56.306Z,2.43
2022-11-23T05:27:26.604Z,2.37
2022-11-23T05:29:56.497Z,2.57
2022-11-23T05:32:26.370Z,3.10
2022-11-23T05:34:56.178Z,2.00
2022-11-23T05:37:27.689Z,2.70
2022-11-23T05:40:01.931Z,2.20
2022-11-23T05:42:32.262Z,2.60
2022-11-23T05:45:07.398Z,2.60
2022-11-23T05:47:36.646Z,2.40
2022-11-23T05:50:08.017Z,2.80
2022-11-23T05:52:38.427Z,2.90
2022-11-23T05:55:09.490Z,3.00
2022-11-23T05:57:40.192Z,2.37
2022-11-23T06:00:12.398Z,2.77
2022-11-23T06:02:41.558Z,2.57
2022-11-23T06:05:12.331Z,2.67
2022-11-23T06:07:43.848Z,2.93
2022-11-23T06:10:16.416Z,2.40
2022-11-23T06:12:49.862Z,2.80
2022-11-23T06:15:19.901Z,2.60
2022-11-23T06:17:50.233Z,2.52
2022-11-23T06:20:21.708Z,2.87
2022-11-23T06:22:54.181Z,3.13
2022-11-23T06:25:25.048Z,2.65
2022-11-23T06:28:15.427Z,2.65
2022-11-23T06:30:47.001Z,2.57
2022-11-23T06:33:16.777Z,2.90
2022-11-23T06:35:55.846Z,3.05
2022-11-23T06:38:27.755Z,3.50
2022-11-23T06:41:08.075Z,3.07
2022-11-23T06:43:37.854Z,3.03
2022-11-23T06:46:08.187Z,2.90
2022-11-23T06:48:39.691Z,2.33
2022-11-23T06:51:09.553Z,2.90
2022-11-23T06:53:39.289Z,2.60
2022-11-23T06:56:10.779Z,3.12
2022-11-23T06:58:41.426Z,2.47
2022-11-23T07:01:13.444Z,2.77
2022-11-23T07:03:51.176Z,2.90
2022-11-23T07:06:25.404Z,2.83
2022-11-23T07:08:57.402Z,3.35
2022-11-23T07:11:43.897Z,2.45
2022-11-23T07:14:14.751Z,3.05
2022-11-23T07:16:46.183Z,2.70
2022-11-23T07:19:16.404Z,2.20
2022-11-23T07:21:46.937Z,2.17
2022-11-23T07:24:16.750Z,2.77
2022-11-23T07:26:46.474Z,2.70
2022-11-23T07:29:16.285Z,2.87
2022-11-23T07:31:46.030Z,2.47
2022-11-23T07:34:15.593Z,2.38
2022-11-23T07:36:45.514Z,3.03
2022-11-23T07:39:15.270Z,3.07
2022-11-23T07:41:46.112Z,3.15
2022-11-23T07:44:17.761Z,2.80
2022-11-23T07:46:47.493Z,2.23
2022-11-23T07:49:17.230Z,3.27
2022-11-23T07:51:46.978Z,2.30
2022-11-23T07:54:23.347Z,2.50
2022-11-23T07:56:49.247Z,2.62
2022-11-23T07:59:19.291Z,2.30
2022-11-23T08:01:53.063Z,2.10
2022-11-23T08:04:20.440Z,2.33
2022-11-23T08:06:50.175Z,2.27
2022-11-23T08:09:19.991Z,2.07
2022-11-23T08:11:49.726Z,1.93
2022-11-23T08:14:19.379Z,3.12
2022-11-23T08:16:53.037Z,2.40
2022-11-23T08:19:22.812Z,2.30
2022-11-23T08:21:52.334Z,1.95
2022-11-23T08:24:22.336Z,2.00
2022-11-23T08:26:52.047Z,2.10
2022-11-23T08:29:21.771Z,2.17
2022-11-23T08:31:51.894Z,2.13
2022-11-23T08:34:21.550Z,2.30
2022-11-23T08:36:51.283Z,2.63
2022-11-23T08:39:21.133Z,1.90
2022-11-23T08:41:50.888Z,1.80
2022-11-23T08:44:20.720Z,2.12
2022-11-23T08:46:50.840Z,2.10
2022-11-23T08:49:20.601Z,2.13
2022-11-23T08:51:50.554Z,2.13
2022-11-23T08:54:20.069Z,2.33
2022-11-23T08:56:49.813Z,2.73
2022-11-23T08:59:20.287Z,2.37
2022-11-23T09:01:50.419Z,2.72
2022-11-23T09:04:20.958Z,1.93
2022-11-23T09:06:50.779Z,2.07
2022-11-23T09:09:20.689Z,2.00
2022-11-23T09:11:50.891Z,2.10
2022-11-23T09:14:21.776Z,2.10
2022-11-23T09:16:51.642Z,2.20
2022-11-23T09:19:21.953Z,1.83
2022-11-23T09:21:51.997Z,2.00
2022-11-23T09:24:22.648Z,1.95
2022-11-23T09:26:52.488Z,2.57
2022-11-23T09:29:22.521Z,2.40
2022-11-23T09:31:51.980Z,2.00
2022-11-23T09:34:21.787Z,2.05
2022-11-23T09:36:51.240Z,2.30
2022-11-23T09:39:20.982Z,2.13
2022-11-23T09:42:08.063Z,2.20
2022-11-23T09:44:58.163Z,2.50
2022-11-23T09:47:36.685Z,2.57
2022-11-23T09:50:11.299Z,2.25
2022-11-23T09:52:44.139Z,3.07
2022-11-23T09:55:31.646Z,2.20
2022-11-23T09:58:04.857Z,1.82
2022-11-23T10:00:40.355Z,2.12
2022-11-23T10:03:18.139Z,2.57
2022-11-23T10:05:56.501Z,2.80
2022-11-23T10:08:38.360Z,2.27
2022-11-23T10:11:22.668Z,2.40
2022-11-23T10:14:19.186Z,2.15
2022-11-23T10:16:51.936Z,2.53
2022-11-23T10:19:28.989Z,2.10
2022-11-23T10:22:13.421Z,2.17
2022-11-23T10:24:50.176Z,2.00
2022-11-23T10:27:22.707Z,2.60
2022-11-23T10:29:56.481Z,2.30
2022-11-23T10:32:34.671Z,1.60
2022-11-23T10:35:19.229Z,2.23
2022-11-23T10:37:52.189Z,1.77
2022-11-23T10:40:29.388Z,2.20
2022-11-23T10:43:04.916Z,2.53
2022-11-23T10:45:34.421Z,2.03
2022-11-23T10:48:06.411Z,2.12
2022-11-23T10:50:40.660Z,1.80
2022-11-23T10:53:18.642Z,2.30
2022-11-23T10:55:57.982Z,1.67
2022-11-23T10:58:31.255Z,2.27
2022-11-23T11:01:03.215Z,1.77
2022-11-23T11:03:35.502Z,2.13
2022-11-23T11:06:09.939Z,2.12
2022-11-23T11:08:50.724Z,1.80
2022-11-23T11:11:28.560Z,1.20
2022-11-23T11:14:16.218Z,1.65
2022-11-23T11:16:54.381Z,1.53
2022-11-23T11:19:32.881Z,1.50
2022-11-23T11:22:05.591Z,1.83
2022-11-23T11:24:38.650Z,1.80
2022-11-23T11:27:20.178Z,1.97
2022-11-23T11:29:52.623Z,1.60
2022-11-23T11:32:42.938Z,1.30
2022-11-23T11:35:27.682Z,1.47
2022-11-23T11:38:00.488Z,1.50
2022-11-23T11:40:36.008Z,2.10
2022-11-23T11:43:14.650Z,1.60
2022-11-23T11:46:06.526Z,2.10
2022-11-23T11:48:21.441Z,1.83
2022-11-23T11:51:00.127Z,1.57
2022-11-23T11:53:35.994Z,1.95
2022-11-23T11:56:19.300Z,1.65
2022-11-23T11:58:52.117Z,1.83
2022-11-23T12:01:39.825Z,1.50
2022-11-23T12:04:18.808Z,1.20
2022-11-23T12:09:36.192Z,1.22
2022-11-23T12:12:11.032Z,1.20
2022-11-23T12:14:40.868Z,1.70
2022-11-23T12:17:40.307Z,1.50
2022-11-23T12:20:19.390Z,2.20
2022-11-23T12:23:17.610Z,1.47
2022-11-23T12:26:05.175Z,1.47
2022-11-23T12:28:46.643Z,1.30
2022-11-23T12:31:47.802Z,1.80
2022-11-23T12:34:41.605Z,1.12
2022-11-23T12:37:20.404Z,1.40
2022-11-23T12:40:16.894Z,1.23
2022-11-23T12:42:54.909Z,1.43
2022-11-23T12:45:43.900Z,1.20
2022-11-23T12:48:25.673Z,0.90
2022-11-23T12:51:13.531Z,1.40
2022-11-23T12:54:14.567Z,0.90
2022-11-23T12:56:53.052Z,1.45
2022-11-23T12:59:25.348Z,1.87
2022-11-23T13:02:00.017Z,1.30
2022-11-23T13:04:33.250Z,0.90
2022-11-23T13:07:31.490Z,0.83
2022-11-23T13:09:58.045Z,1.10
2022-11-23T13:12:40.079Z,1.05
2022-11-23T13:15:18.280Z,0.80
2022-11-23T13:18:02.759Z,1.10
2022-11-23T13:20:50.589Z,1.27
2022-11-23T13:23:22.183Z,1.57
2022-11-23T13:26:18.975Z,0.98
2022-11-23T13:28:50.040Z,0.73
2022-11-23T13:31:28.624Z,1.10
2022-11-23T13:34:01.771Z,1.10
2022-11-23T13:37:10.610Z,1.05
2022-11-23T13:39:28.819Z,0.70
2022-11-23T13:42:01.947Z,1.17
2022-11-23T13:44:33.401Z,0.87
2022-11-23T13:47:08.871Z,0.82
2022-11-23T13:49:53.392Z,1.10
2022-11-23T13:52:25.905Z,0.97
2022-11-23T13:55:09.280Z,1.20
2022-11-23T13:57:35.803Z,1.40
2022-11-23T14:00:44.418Z,1.36
2022-11-23T14:03:47.935Z,1.05
2022-11-23T14:06:23.055Z,0.77
2022-11-23T14:09:01.582Z,0.93
2022-11-23T14:11:33.494Z,1.07
2022-11-23T14:14:06.142Z,0.80
2022-11-23T14:17:04.877Z,0.83
2022-11-23T14:19:38.267Z,1.17
2022-11-23T14:22:24.997Z,1.32
2022-11-23T14:25:05.884Z,1.27
2022-11-23T14:27:56.286Z,1.70
2022-11-23T14:30:41.410Z,1.40
2022-11-23T14:33:41.580Z,0.83
2022-11-23T14:36:20.442Z,1.10
2022-11-23T14:38:53.487Z,1.00
2022-11-23T14:41:29.296Z,1.27
2022-11-23T14:44:00.448Z,1.00
2022-11-23T14:46:30.225Z,0.80
2022-11-23T14:49:08.292Z,1.10
2022-11-23T14:51:41.060Z,1.37
2022-11-23T14:54:12.626Z,1.20
2022-11-23T14:56:47.709Z,1.45
2022-11-23T14:59:25.355Z,1.43
2022-11-23T15:01:58.312Z,1.23
2022-11-23T15:04:36.951Z,1.12
2022-11-23T15:07:16.813Z,1.50
2022-11-23T15:10:24.148Z,1.40
2022-11-23T15:12:53.875Z,2.52
2022-11-23T15:15:26.456Z,1.30
2022-11-23T15:18:00.845Z,1.60
2022-11-23T15:20:36.802Z,1.85
2022-11-23T15:23:06.903Z,1.30
2022-11-23T15:25:36.979Z,1.45
2022-11-23T15:28:11.120Z,1.27
2022-11-23T15:30:40.847Z,1.43
2022-11-23T15:33:12.099Z,1.57
2022-11-23T15:35:42.675Z,1.50
2022-11-23T15:38:22.032Z,2.07
2022-11-23T15:40:49.796Z,1.47
2022-11-23T15:43:21.340Z,1.62
2022-11-23T15:45:54.179Z,1.97
2022-11-23T15:48:36.584Z,1.55
2022-11-23T15:51:10.184Z,1.90
2022-11-23T15:53:54.279Z,2.30
2022-11-23T15:56:35.293Z,2.62
2022-11-23T15:59:28.490Z,1.60
2022-11-23T16:01:59.741Z,2.20
2022-11-23T16:04:38.870Z,2.25
2022-11-23T16:07:20.185Z,2.47
2022-11-23T16:09:53.724Z,3.20
2022-11-23T16:12:33.531Z,2.80
2022-11-23T16:15:29.824Z,2.75
2022-11-23T16:18:00.408Z,3.07
2022-11-23T16:20:30.899Z,2.67
2022-11-23T16:23:02.078Z,2.73
2022-11-23T16:25:36.220Z,2.00
2022-11-23T16:28:16.582Z,2.30
2022-11-23T16:30:46.959Z,2.13
2022-11-23T16:33:18.708Z,2.20
2022-11-23T16:35:48.802Z,2.60
2022-11-23T16:38:19.153Z,2.92
2022-11-23T16:40:49.326Z,2.77
2022-11-23T16:43:19.405Z,4.90
2022-11-23T16:45:51.913Z,3.93
2022-11-23T16:48:27.427Z,4.20
2022-11-23T16:50:58.084Z,3.00
2022-11-23T16:53:30.034Z,2.37
2022-11-23T16:56:01.725Z,2.33
2022-11-23T16:58:36.504Z,2.10
2022-11-23T17:01:06.368Z,2.47
2022-11-23T17:03:37.738Z,2.37
2022-11-23T17:06:16.783Z,2.68
2022-11-23T17:08:46.792Z,2.33
2022-11-23T17:11:21.797Z,2.10
2022-11-23T17:13:53.877Z,2.30
2022-11-23T17:16:26.810Z,2.53
2022-11-23T17:18:56.538Z,2.27
2022-11-23T17:21:26.267Z,2.97
2022-11-23T17:23:56.347Z,4.30
2022-11-23T17:26:35.400Z,3.27
2022-11-23T17:29:09.210Z,2.50
2022-11-23T17:31:38.927Z,2.27
2022-11-23T17:34:11.583Z,2.80
2022-11-23T17:36:43.519Z,2.73
2022-11-23T17:39:22.503Z,3.30
2022-11-23T17:41:52.577Z,2.87
2022-11-23T17:44:22.310Z,2.60
2022-11-23T17:46:54.159Z,2.55
2022-11-23T17:49:25.511Z,2.60
2022-11-23T17:51:58.030Z,3.20
2022-11-23T17:54:27.768Z,2.87
2022-11-23T17:56:57.665Z,3.00
2022-11-23T17:59:27.138Z,3.95
2022-11-23T18:01:57.786Z,2.60
2022-11-23T18:04:27.574Z,2.92
2022-11-23T18:06:57.585Z,3.72
2022-11-23T18:09:27.603Z,5.50
2022-11-23T18:11:57.323Z,3.13
2022-11-23T18:14:28.816Z,3.58
2022-11-23T18:16:58.583Z,3.30
2022-11-23T18:19:28.771Z,3.77
2022-11-23T18:21:58.489Z,3.40
2022-11-23T18:24:27.916Z,3.33
2022-11-23T18:26:57.670Z,4.37
2022-11-23T18:29:27.482Z,3.80
2022-11-23T18:31:57.176Z,4.07
2022-11-23T18:34:26.599Z,4.67
2022-11-23T18:36:56.844Z,4.53
2022-11-23T18:39:26.559Z,3.60
2022-11-23T18:41:58.957Z,3.83
2022-11-23T18:44:27.805Z,4.80
2022-11-23T18:46:57.547Z,4.37
2022-11-23T18:49:27.820Z,4.85
2022-11-23T18:51:57.560Z,4.97
2022-11-23T18:54:27.410Z,4.15
2022-11-23T18:56:57.179Z,4.40
2022-11-23T18:59:57.344Z,4.87
2022-11-23T19:01:58.387Z,4.60
2022-11-23T19:04:28.106Z,4.65
2022-11-23T19:06:57.793Z,4.47
2022-11-23T19:09:27.304Z,4.75
2022-11-23T19:11:57.278Z,4.33
2022-11-23T19:14:26.724Z,5.00
2022-11-23T19:16:56.440Z,5.20
2022-11-23T19:19:26.466Z,4.83
2022-11-23T19:21:56.190Z,4.23
2022-11-23T19:24:25.681Z,5.00
2022-11-23T19:26:55.717Z,4.90
2022-11-23T19:29:26.495Z,5.15
2022-11-23T19:31:56.224Z,4.93
2022-11-23T19:34:25.669Z,4.67
2022-11-23T19:36:55.145Z,6.00
2022-11-23T19:39:24.968Z,4.70
2022-11-23T19:41:54.728Z,6.00
2022-11-23T19:44:24.167Z,5.53
2022-11-23T19:46:54.445Z,8.27
2022-11-23T19:49:24.279Z,11.43
2022-11-23T19:51:54.415Z,9.27
2022-11-23T19:54:24.482Z,8.03
2022-11-23T19:56:54.558Z,7.83
2022-11-23T19:59:27.169Z,8.27
2022-11-23T20:01:56.931Z,7.27
2022-11-23T20:04:26.361Z,6.05
2022-11-23T20:06:55.099Z,5.40
2022-11-23T20:09:26.605Z,5.45
2022-11-23T20:11:56.350Z,5.57
2022-11-23T20:14:26.440Z,4.80
2022-11-23T20:16:56.485Z,6.05
2022-11-23T20:19:27.253Z,6.23
2022-11-23T20:21:57.120Z,5.33
2022-11-23T20:24:26.577Z,4.92
2022-11-23T20:26:56.614Z,5.10
2022-11-23T20:29:26.449Z,5.03
2022-11-23T20:31:56.325Z,5.37
2022-11-23T20:34:26.529Z,4.50
2022-11-23T20:36:56.326Z,9.10
2022-11-23T20:39:26.054Z,7.23
2022-11-23T20:41:55.798Z,7.00
2022-11-23T20:44:30.774Z,6.45
2022-11-23T20:47:02.164Z,6.35
2022-11-23T20:49:30.150Z,7.00
2022-11-23T20:52:01.930Z,5.57
2022-11-23T20:54:32.454Z,5.33
2022-11-23T20:57:02.579Z,5.00
2022-11-23T20:59:32.845Z,5.58
2022-11-23T21:02:02.648Z,5.97
2022-11-23T21:04:32.570Z,5.37
2022-11-23T21:07:02.365Z,5.40
2022-11-23T21:09:32.606Z,5.23
2022-11-23T21:12:20.194Z,5.33
2022-11-23T21:14:49.940Z,5.17
2022-11-23T21:17:20.143Z,5.17
2022-11-23T21:19:50.838Z,5.10
2022-11-23T21:22:20.583Z,4.53
2022-11-23T21:24:50.617Z,5.85
2022-11-23T21:27:22.040Z,5.17
2022-11-23T21:29:52.766Z,4.60
2022-11-23T21:32:22.755Z,4.92
2022-11-23T21:34:52.486Z,4.83
2022-11-23T21:37:22.292Z,4.97
2022-11-23T21:39:53.173Z,4.63
2022-11-23T21:42:23.051Z,4.50
2022-11-23T21:44:52.778Z,4.67
2022-11-23T21:47:22.248Z,4.90
2022-11-23T21:49:52.011Z,4.20
2022-11-23T21:52:21.456Z,4.78
2022-11-23T21:57:17.903Z,4.40
2022-11-23T21:59:47.702Z,5.10
2022-11-23T22:02:17.417Z,5.22
2022-11-23T22:04:47.446Z,5.22
2022-11-23T22:07:17.415Z,5.27
2022-11-23T22:09:47.190Z,4.57
2022-11-23T22:12:16.907Z,4.97
2022-11-23T22:14:47.115Z,4.50
2022-11-23T22:17:16.865Z,4.97
2022-11-23T22:19:46.568Z,4.93
2022-11-23T22:22:16.298Z,6.33
2022-11-23T22:24:46.031Z,5.27
2022-11-23T22:27:15.761Z,4.70
2022-11-23T22:29:45.480Z,4.33
2022-11-23T22:32:15.252Z,5.33
2022-11-23T22:34:46.436Z,4.37
2022-11-23T22:37:16.487Z,4.47
2022-11-23T22:39:46.218Z,5.07
2022-11-23T22:42:17.223Z,4.73
2022-11-23T22:44:47.021Z,4.73
2022-11-23T22:47:16.761Z,4.90
2022-11-23T22:49:46.767Z,4.70
2022-11-23T22:52:16.208Z,5.23
2022-11-23T22:54:46.226Z,4.65
2022-11-23T22:57:15.961Z,4.20
2022-11-23T22:59:45.796Z,4.53
2022-11-23T23:02:15.284Z,4.60
2022-11-23T23:04:45.029Z,4.63
2022-11-23T23:07:14.817Z,4.23
2022-11-23T23:09:44.568Z,4.00
2022-11-23T23:12:15.155Z,4.35
2022-11-23T23:14:44.876Z,4.87
2022-11-23T23:17:14.609Z,4.33
2022-11-23T23:19:44.624Z,3.98
2022-11-23T23:22:14.349Z,4.03
2022-11-23T23:24:44.845Z,3.73
2022-11-23T23:27:16.402Z,3.67
2022-11-23T23:29:46.148Z,4.43
2022-11-23T23:32:15.921Z,3.25
2022-11-23T23:34:45.810Z,3.53
2022-11-23T23:37:15.905Z,3.65
2022-11-23T23:39:45.744Z,4.03
2022-11-23T23:42:15.655Z,3.27
2022-11-23T23:44:45.277Z,3.85
2022-11-23T23:47:15.004Z,3.23
2022-11-23T23:49:44.731Z,3.10
2022-11-23T23:52:14.477Z,3.67
2022-11-23T23:54:44.576Z,3.83
2022-11-23T23:57:14.668Z,4.08
2022-11-23T23:59:44.755Z,3.00
